KCMH/CMH METAR and TAF weather

Enter ICAO airport designator
Station Type Date Time Source
KCMH METAR 2019/05/21 19:51 UTC NOAA

KCMH 211951Z 07007KT 10SM FEW080 SCT110 BKN250 18/04 A3012 RMK AO2 SLP199 T01780044


Station Type Date Time Source
KCMH Decoded METAR 2019/05/21 19:51 UTC NOAA

PORT COLUMBUS INTERNATIONAL AIRPORT, OH, United States (KCMH) 40-00N 82-53W 247M
May 21, 2019 - 03:51 PM EDT / 2019.05.21 1951 UTC
Wind: from the ENE (070 degrees) at 8 MPH (7 KT):0
Visibility: 10 mile(s):0
Sky conditions: mostly cloudy
Temperature: 64.0 F (17.8 C)
Dew Point: 39.9 F (4.4 C)
Relative Humidity: 41%
Pressure (altimeter): 30.12 in. Hg (1019 hPa)
ob: KCMH 211951Z 07007KT 10SM FEW080 SCT110 BKN250 18/04 A3012 RMK AO2 SLP199 T01780044
cycle: 20

Station Type Date Time Source
KCMH TAF 2019/05/21 18:42 UTC NOAA

TAF KCMH 211740Z 2118/2218 09008KT P6SM BKN250
FM221300 13010KT P6SM BKN200
FM221500 16010KT P6SM SCT250

Example: see airport list